This is the latest recevied weather packets stored in our database for station/object HJ3GNC-11. If no packets are shown the sender has not sent any weather packets the latest 10 day(s).
| Time | Temp. | Humidity | Pressure | Rain* | Wind** | Luminosity | Snow |
|---|---|---|---|---|---|---|---|
| 1778090136 | 18.89° C | 83% | 1016 hPa | 0 mm | - | - | - |
| 1778089191 | 17.78° C | 83% | 1017 hPa | 0 mm | - | - | - |
| 1778088244 | 16.67° C | 83% | 1018 hPa | 0 mm | - | - | - |
| 1778087299 | 15.56° C | 83% | 1018 hPa | 0 mm | - | - | - |
| 1778086355 | 14.44° C | 83% | 1018 hPa | 0 mm | - | - | - |
| 1778085401 | 13.33° C | 83% | 1018 hPa | 0 mm | - | - | - |
| 1778084433 | 16.67° C | 87% | 1020 hPa | 0 mm | - | - | - |
| 1778083484 | 15.56° C | 87% | 1020 hPa | 0 mm | - | - | - |
| 1778082533 | 14.44° C | 87% | 1020 hPa | 0 mm | - | - | - |
| 1778081580 | 13.33° C | 87% | 1020 hPa | 0 mm | - | - | - |
| 1778080587 | 16.11° C | 89% | 1020 hPa | 0 mm | - | - | - |
| 1778079620 | 15° C | 89% | 1020 hPa | 0 mm | - | - | - |
| 1778078675 | 13.89° C | 89% | 1020 hPa | 0 mm | - | - | - |
| 1778077726 | 15.56° C | 90% | 1020 hPa | 0 mm | - | - | - |
| 1778076775 | 14.44° C | 90% | 1020 hPa | 0 mm | - | - | - |
| 1778075823 | 13.33° C | 90% | 1020 hPa | 0 mm | - | - | - |
| 1778074879 | 12.22° C | 90% | 1020 hPa | 0 mm | - | - | - |
| 1778073932 | 15.56° C | 95% | 1020 hPa | 0 mm | - | - | - |
| 1778072988 | 14.44° C | 95% | 1020 hPa | 0 mm | - | - | - |
| 1778072041 | 13.33° C | 95% | 1020 hPa | 0 mm | - | - | - |
| 1778071090 | 12.22° C | 95% | 1020 hPa | 0 mm | - | - | - |
| 1778070143 | 11.11° C | 95% | 1020 hPa | 0 mm | - | - | - |
| 1778069192 | 12.78° C | 94% | 1020 hPa | 0 mm | - | - | - |
| 1778068246 | 11.67° C | 94% | 1020 hPa | 0 mm | - | - | - |
| 1778067300 | 10.56° C | 94% | 1020 hPa | 0 mm | - | - | - |
* Rain latest hour (hover to see other rain measurements)
** Current wind speed in m/s (hover to see current wind gust speed)